createdAt,value
2023-07-27T00:00:28.230Z,69.35
2023-07-27T00:02:56.272Z,69.51
2023-07-27T00:05:25.715Z,69.43
2023-07-27T00:07:53.666Z,69.51
2023-07-27T00:10:21.850Z,69.30
2023-07-27T00:12:49.844Z,69.42
2023-07-27T00:15:17.864Z,69.42
2023-07-27T00:17:45.946Z,69.50
2023-07-27T00:20:14.199Z,69.71
2023-07-27T00:22:43.551Z,69.35
2023-07-27T00:25:11.486Z,69.44
2023-07-27T00:27:39.545Z,69.42
2023-07-27T00:30:08.881Z,69.26
2023-07-27T00:32:36.930Z,69.59
2023-07-27T00:35:05.604Z,69.33
2023-07-27T00:37:33.555Z,69.61
2023-07-27T00:40:03.333Z,69.64
2023-07-27T00:42:31.339Z,69.67
2023-07-27T00:44:59.309Z,69.51
2023-07-27T00:47:27.323Z,69.45
2023-07-27T00:49:55.294Z,69.67
2023-07-27T00:52:23.578Z,69.64
2023-07-27T00:54:51.525Z,69.52
2023-07-27T00:57:21.683Z,69.77
2023-07-27T00:59:49.604Z,69.63
2023-07-27T01:02:17.589Z,69.43
2023-07-27T01:04:45.574Z,69.63
2023-07-27T01:07:13.556Z,69.51
2023-07-27T01:09:41.528Z,69.65
2023-07-27T01:12:11.981Z,69.55
2023-07-27T01:14:43.182Z,69.69
2023-07-27T01:17:13.586Z,69.71
2023-07-27T01:20:22.397Z,69.40
2023-07-27T01:23:16.722Z,69.75
2023-07-27T01:25:58.834Z,69.58
2023-07-27T01:28:35.292Z,69.50
2023-07-27T01:31:05.205Z,69.83
2023-07-27T01:33:34.390Z,69.56
2023-07-27T01:36:06.006Z,69.76
2023-07-27T01:38:33.995Z,69.71
2023-07-27T01:41:02.007Z,69.72
2023-07-27T01:43:30.055Z,69.65
2023-07-27T01:45:58.163Z,69.47
2023-07-27T01:48:28.148Z,69.61
2023-07-27T01:50:56.588Z,69.49
2023-07-27T01:53:24.727Z,69.68
2023-07-27T01:55:52.701Z,69.73
2023-07-27T01:58:20.702Z,69.66
2023-07-27T02:00:48.963Z,69.68
2023-07-27T02:03:16.915Z,69.68
2023-07-27T02:05:46.283Z,69.58
2023-07-27T02:08:14.254Z,69.80
2023-07-27T02:10:42.346Z,69.65
2023-07-27T02:13:12.904Z,69.72
2023-07-27T02:15:44.058Z,69.62
2023-07-27T02:18:16.977Z,69.79
2023-07-27T02:20:46.372Z,69.81
2023-07-27T02:23:14.319Z,69.92
2023-07-27T02:25:42.271Z,69.60
2023-07-27T02:28:11.893Z,69.74
2023-07-27T02:30:40.095Z,69.84
2023-07-27T02:33:08.030Z,69.78
2023-07-27T02:35:36.042Z,69.64
2023-07-27T02:38:05.421Z,69.79
2023-07-27T02:40:33.375Z,69.70
2023-07-27T02:43:01.345Z,69.82
2023-07-27T02:45:29.519Z,69.79
2023-07-27T02:47:57.489Z,69.86
2023-07-27T02:50:25.571Z,69.93
2023-07-27T02:52:53.630Z,70.00
2023-07-27T02:55:23.000Z,69.99
2023-07-27T02:57:51.067Z,69.91
2023-07-27T03:00:19.170Z,69.84
2023-07-27T03:02:47.242Z,69.69
2023-07-27T03:05:15.406Z,69.98
2023-07-27T03:07:43.387Z,69.76
2023-07-27T03:10:11.704Z,69.90
2023-07-27T03:12:41.033Z,69.92
2023-07-27T03:15:09.661Z,69.84
2023-07-27T03:17:37.826Z,69.94
2023-07-27T03:20:06.874Z,69.82
2023-07-27T03:22:34.897Z,70.05
2023-07-27T03:25:02.864Z,69.91
2023-07-27T03:27:30.818Z,69.92
2023-07-27T03:30:00.157Z,69.82
2023-07-27T03:32:28.265Z,69.88
2023-07-27T03:34:56.303Z,70.01
2023-07-27T03:37:24.240Z,69.92
2023-07-27T03:39:52.210Z,69.84
2023-07-27T03:42:20.162Z,69.98
2023-07-27T03:44:48.119Z,69.88
2023-07-27T03:47:17.639Z,69.85
2023-07-27T03:49:45.643Z,69.90
2023-07-27T03:52:13.602Z,69.84
2023-07-27T03:54:41.534Z,70.01
2023-07-27T03:57:09.538Z,69.86
2023-07-27T03:59:37.496Z,69.87
2023-07-27T04:02:05.788Z,69.88
2023-07-27T04:04:35.129Z,69.70
2023-07-27T04:07:03.115Z,69.86
2023-07-27T04:09:31.032Z,69.75
2023-07-27T04:11:59.035Z,69.99
2023-07-27T04:14:27.069Z,69.85
2023-07-27T04:16:55.067Z,69.91
2023-07-27T04:19:23.115Z,69.85
2023-07-27T04:21:52.490Z,69.92
2023-07-27T04:24:20.653Z,69.76
2023-07-27T04:26:48.571Z,69.87
2023-07-27T04:29:16.580Z,69.85
2023-07-27T04:31:44.517Z,69.90
2023-07-27T04:34:12.467Z,69.88
2023-07-27T04:36:40.386Z,69.85
2023-07-27T04:39:09.743Z,69.96
2023-07-27T04:41:37.756Z,69.86
2023-07-27T04:44:06.020Z,69.93
2023-07-27T04:46:34.341Z,69.91
2023-07-27T04:49:02.867Z,70.00
2023-07-27T04:51:30.849Z,69.70
2023-07-27T04:53:58.831Z,69.95
2023-07-27T04:56:28.171Z,69.93
2023-07-27T04:58:56.142Z,69.93
2023-07-27T05:01:24.140Z,69.86
2023-07-27T05:03:52.596Z,69.96
2023-07-27T05:06:20.638Z,70.00
2023-07-27T05:08:48.563Z,69.83
2023-07-27T05:11:16.560Z,69.79
2023-07-27T05:13:45.921Z,69.92
2023-07-27T05:16:13.920Z,69.74
2023-07-27T05:18:41.915Z,69.67
2023-07-27T05:21:11.111Z,69.84
2023-07-27T05:23:40.728Z,69.74
2023-07-27T05:26:08.716Z,69.90
2023-07-27T05:28:36.768Z,69.88
2023-07-27T05:31:06.084Z,69.74
2023-07-27T05:33:34.083Z,69.85
2023-07-27T05:36:02.146Z,69.82
2023-07-27T05:38:30.124Z,69.95
2023-07-27T05:41:01.198Z,70.03
2023-07-27T05:43:29.164Z,69.99
2023-07-27T05:45:57.427Z,69.92
2023-07-27T05:48:26.841Z,69.65
2023-07-27T05:50:54.952Z,69.80
2023-07-27T05:53:23.405Z,69.62
2023-07-27T05:55:51.439Z,69.79
2023-07-27T05:58:25.477Z,69.66
2023-07-27T06:01:01.934Z,69.77
2023-07-27T06:03:31.548Z,69.85
2023-07-27T06:05:59.742Z,69.81
2023-07-27T06:08:27.889Z,69.80
2023-07-27T06:11:02.812Z,69.80
2023-07-27T06:13:31.050Z,69.78
2023-07-27T06:15:59.225Z,69.58
2023-07-27T06:18:27.325Z,69.55
2023-07-27T06:20:56.837Z,69.75
2023-07-27T06:23:24.830Z,69.82
2023-07-27T06:25:52.940Z,69.59
2023-07-27T06:28:20.915Z,69.59
2023-07-27T06:30:49.792Z,69.56
2023-07-27T06:33:17.908Z,69.65
2023-07-27T06:35:45.931Z,69.41
2023-07-27T06:38:15.267Z,69.51
2023-07-27T06:40:43.263Z,69.27
2023-07-27T06:43:11.292Z,69.35
2023-07-27T06:45:39.278Z,69.62
2023-07-27T06:48:07.787Z,69.51
2023-07-27T06:50:35.787Z,69.67
2023-07-27T06:53:04.014Z,69.59
2023-07-27T06:55:33.878Z,69.54
2023-07-27T06:58:02.536Z,69.86
2023-07-27T07:00:30.532Z,69.84
2023-07-27T07:02:59.014Z,69.53
2023-07-27T07:05:27.061Z,69.50
2023-07-27T07:07:55.039Z,69.85
2023-07-27T07:10:23.040Z,69.68
2023-07-27T07:12:52.800Z,69.53
2023-07-27T07:15:20.804Z,69.67
2023-07-27T07:17:48.847Z,69.72
2023-07-27T07:20:16.982Z,70.13
2023-07-27T07:22:44.886Z,69.79
2023-07-27T07:25:12.815Z,69.80
2023-07-27T07:27:40.954Z,69.83
2023-07-27T07:30:11.281Z,69.50
2023-07-27T07:32:39.478Z,69.37
2023-07-27T07:35:09.639Z,69.34
2023-07-27T07:37:39.707Z,69.23
2023-07-27T07:40:09.235Z,69.40
2023-07-27T07:42:37.262Z,69.10
2023-07-27T07:45:05.968Z,69.49
2023-07-27T07:47:35.420Z,69.34
2023-07-27T07:50:03.749Z,69.41
2023-07-27T07:52:31.994Z,69.51
2023-07-27T07:54:59.954Z,69.44
2023-07-27T07:57:27.956Z,69.43
2023-07-27T07:59:56.011Z,69.52
2023-07-27T08:02:24.013Z,69.62
2023-07-27T08:04:53.700Z,69.29
2023-07-27T08:07:22.203Z,69.10
2023-07-27T08:09:50.175Z,68.98
2023-07-27T08:12:18.113Z,68.66
2023-07-27T08:14:46.131Z,68.56
2023-07-27T08:17:14.556Z,68.51
2023-07-27T08:19:42.566Z,68.47
2023-07-27T08:22:12.064Z,68.42
2023-07-27T08:24:40.062Z,68.45
2023-07-27T08:27:09.634Z,68.53
2023-07-27T08:29:37.658Z,68.42
2023-07-27T08:32:06.163Z,68.53
2023-07-27T08:34:34.332Z,68.43
2023-07-27T08:37:02.950Z,68.60
2023-07-27T08:39:32.275Z,68.61
2023-07-27T08:42:00.224Z,68.46
2023-07-27T08:44:28.554Z,68.42
2023-07-27T08:46:56.868Z,68.45
2023-07-27T08:49:25.316Z,68.46
2023-07-27T08:51:53.297Z,68.87
2023-07-27T08:54:21.931Z,69.07
2023-07-27T08:56:51.356Z,69.17
2023-07-27T08:59:19.263Z,69.15
2023-07-27T09:01:47.500Z,68.91
2023-07-27T09:04:16.259Z,68.73
2023-07-27T09:06:45.906Z,68.61
2023-07-27T09:09:16.164Z,68.72
2023-07-27T09:11:46.876Z,68.68
2023-07-27T09:14:18.043Z,68.70
2023-07-27T09:16:46.392Z,68.59
2023-07-27T09:19:15.118Z,68.57
2023-07-27T09:21:43.310Z,68.36
2023-07-27T09:24:12.307Z,68.09
2023-07-27T09:26:48.058Z,68.31
2023-07-27T09:29:17.726Z,68.33
2023-07-27T09:31:46.733Z,68.32
2023-07-27T09:34:14.686Z,68.28
2023-07-27T09:36:42.734Z,67.72
2023-07-27T09:39:11.096Z,67.55
2023-07-27T09:41:39.106Z,66.95
2023-07-27T09:44:07.064Z,67.04
2023-07-27T09:46:36.784Z,66.70
2023-07-27T09:49:05.080Z,66.17
2023-07-27T09:51:33.350Z,66.26
2023-07-27T09:54:01.293Z,66.56
2023-07-27T09:56:29.607Z,66.47
2023-07-27T09:58:57.642Z,66.30
2023-07-27T10:01:25.702Z,66.25
2023-07-27T10:03:59.613Z,66.18
2023-07-27T10:06:28.383Z,66.22
2023-07-27T10:08:56.641Z,66.25
2023-07-27T10:11:30.053Z,66.68
2023-07-27T10:13:58.437Z,66.02
2023-07-27T10:16:28.865Z,64.97
2023-07-27T10:18:58.328Z,64.64
2023-07-27T10:21:27.668Z,64.91
2023-07-27T10:23:57.274Z,63.92
2023-07-27T10:26:51.434Z,64.44
2023-07-27T10:29:20.859Z,64.08
2023-07-27T10:32:01.513Z,64.77
2023-07-27T10:34:36.968Z,64.41
2023-07-27T10:37:08.330Z,63.47
2023-07-27T10:39:36.874Z,62.84
2023-07-27T10:42:07.252Z,62.56
2023-07-27T10:44:42.574Z,62.38
2023-07-27T10:47:10.823Z,61.92
2023-07-27T10:49:43.665Z,62.01
2023-07-27T10:52:12.757Z,61.83
2023-07-27T10:54:41.730Z,61.94
2023-07-27T10:57:10.406Z,62.27
2023-07-27T10:59:39.645Z,62.67
2023-07-27T11:02:12.254Z,62.47
2023-07-27T11:04:40.863Z,62.40
2023-07-27T11:07:11.187Z,62.72
2023-07-27T11:09:39.279Z,62.96
2023-07-27T11:12:07.220Z,63.17
2023-07-27T11:14:35.400Z,62.99
2023-07-27T11:17:04.497Z,62.95
2023-07-27T11:19:32.573Z,62.60
2023-07-27T11:22:00.754Z,62.81
2023-07-27T11:24:30.208Z,62.36
2023-07-27T11:26:58.415Z,62.30
2023-07-27T11:29:26.340Z,62.04
2023-07-27T11:31:55.402Z,61.63
2023-07-27T11:34:24.473Z,61.43
2023-07-27T11:36:53.888Z,60.90
2023-07-27T11:39:22.424Z,60.61
2023-07-27T11:41:52.082Z,60.45
2023-07-27T11:44:21.125Z,60.21
2023-07-27T11:46:50.448Z,60.10
2023-07-27T11:49:18.489Z,60.10
2023-07-27T11:51:47.073Z,60.16
2023-07-27T11:54:23.301Z,60.14
2023-07-27T11:56:56.021Z,60.27
2023-07-27T11:59:24.056Z,60.32
2023-07-27T12:01:52.766Z,60.50
2023-07-27T12:04:21.171Z,60.09
2023-07-27T12:06:49.622Z,59.15
2023-07-27T12:09:17.623Z,59.23
2023-07-27T12:11:46.575Z,58.77
2023-07-27T12:14:15.973Z,58.51
2023-07-27T12:21:50.297Z,56.86
2023-07-27T12:34:25.646Z,56.42
2023-07-27T12:39:24.807Z,55.30
2023-07-27T12:44:25.590Z,55.28
2023-07-27T12:46:53.932Z,55.17
2023-07-27T12:49:21.919Z,55.59
2023-07-27T12:51:49.935Z,54.80
2023-07-27T12:54:17.873Z,55.43
2023-07-27T12:56:45.811Z,57.16
2023-07-27T12:59:13.820Z,57.39
2023-07-27T13:01:43.203Z,55.70
2023-07-27T13:04:11.592Z,55.77
2023-07-27T13:06:39.655Z,54.89
2023-07-27T13:09:09.015Z,53.78
2023-07-27T13:11:37.275Z,52.79
2023-07-27T13:14:05.509Z,52.69
2023-07-27T13:16:34.704Z,52.15
2023-07-27T13:19:05.430Z,51.50
2023-07-27T13:21:33.807Z,51.21
2023-07-27T13:24:02.132Z,51.77
2023-07-27T13:26:30.806Z,51.26
2023-07-27T13:28:58.877Z,51.72
2023-07-27T13:31:27.948Z,50.81
2023-07-27T13:33:55.994Z,50.54
2023-07-27T13:36:25.398Z,50.53
2023-07-27T13:38:53.823Z,50.73
2023-07-27T13:41:21.844Z,50.70
2023-07-27T13:43:50.848Z,50.65
2023-07-27T13:46:19.203Z,50.64
2023-07-27T13:48:47.308Z,50.12
2023-07-27T13:51:15.319Z,50.19
2023-07-27T13:53:44.674Z,49.50
2023-07-27T13:56:12.762Z,49.84
2023-07-27T13:58:40.772Z,49.96
2023-07-27T14:01:08.740Z,50.47
2023-07-27T14:03:37.254Z,49.54
2023-07-27T14:06:05.367Z,49.21
2023-07-27T14:08:33.396Z,49.73
2023-07-27T14:11:02.982Z,49.04
2023-07-27T14:13:31.702Z,48.00
2023-07-27T14:16:00.015Z,47.94
2023-07-27T14:18:28.054Z,47.33
2023-07-27T14:20:56.575Z,46.79
2023-07-27T14:23:25.396Z,47.08
2023-07-27T14:25:53.449Z,46.63
2023-07-27T14:28:22.897Z,47.31
2023-07-27T14:31:06.129Z,47.45
2023-07-27T14:33:39.349Z,47.36
2023-07-27T14:36:07.529Z,47.27
2023-07-27T14:38:35.964Z,47.11
2023-07-27T14:41:04.040Z,47.06
2023-07-27T14:43:33.435Z,47.57
2023-07-27T14:46:01.426Z,48.42
2023-07-27T14:51:01.079Z,48.84
2023-07-27T14:53:29.104Z,48.40
2023-07-27T14:55:57.334Z,48.89
2023-07-27T14:58:26.206Z,48.50
2023-07-27T15:06:09.182Z,48.82
2023-07-27T15:08:38.045Z,48.47
2023-07-27T15:13:37.678Z,48.91
2023-07-27T15:16:07.160Z,48.94
2023-07-27T15:18:36.257Z,48.62
2023-07-27T15:21:04.777Z,49.40
2023-07-27T15:23:33.003Z,49.34
2023-07-27T15:26:02.279Z,49.66
2023-07-27T15:28:30.344Z,50.11
2023-07-27T15:30:58.634Z,50.25
2023-07-27T15:33:28.141Z,50.03
2023-07-27T15:35:56.322Z,50.56
2023-07-27T15:38:24.276Z,50.70
2023-07-27T15:40:52.919Z,50.97
2023-07-27T15:43:21.070Z,51.22
2023-07-27T15:45:49.098Z,51.02
2023-07-27T15:48:18.157Z,51.34
2023-07-27T15:50:47.619Z,51.09
2023-07-27T15:53:15.668Z,51.38
2023-07-27T15:55:43.649Z,51.80
2023-07-27T15:58:12.301Z,51.67
2023-07-27T16:00:40.719Z,51.63
2023-07-27T16:03:08.937Z,52.00
2023-07-27T16:05:37.926Z,52.00
2023-07-27T16:08:07.933Z,52.04
2023-07-27T16:10:35.932Z,52.29
2023-07-27T16:13:03.874Z,52.60
2023-07-27T16:15:32.409Z,52.79
2023-07-27T16:18:00.461Z,52.61
2023-07-27T16:20:28.441Z,53.04
2023-07-27T16:22:56.410Z,53.04
2023-07-27T16:25:25.789Z,52.98
2023-07-27T16:27:54.620Z,53.09
2023-07-27T16:30:22.603Z,52.93
2023-07-27T16:32:51.221Z,53.14
2023-07-27T16:35:19.313Z,53.28
2023-07-27T16:37:48.744Z,53.35
2023-07-27T16:40:17.434Z,53.37
2023-07-27T16:42:47.093Z,53.50
2023-07-27T16:45:15.087Z,53.65
2023-07-27T16:47:43.108Z,53.58
2023-07-27T16:50:11.695Z,53.60
2023-07-27T16:52:39.644Z,53.58
2023-07-27T16:55:08.819Z,53.67
2023-07-27T16:57:36.811Z,53.60
2023-07-27T17:00:07.595Z,53.83
2023-07-27T17:02:37.318Z,53.87
2023-07-27T17:05:06.198Z,53.77
2023-07-27T17:07:34.350Z,53.73
2023-07-27T17:10:02.252Z,53.93
2023-07-27T17:12:30.230Z,54.00
2023-07-27T17:14:58.174Z,54.21
2023-07-27T17:17:27.617Z,54.17
2023-07-27T17:19:55.611Z,54.16
2023-07-27T17:22:24.187Z,54.19
2023-07-27T17:24:52.230Z,54.01
2023-07-27T17:27:20.214Z,54.45
2023-07-27T17:29:48.168Z,54.44
2023-07-27T17:32:16.209Z,54.41
2023-07-27T17:34:45.613Z,54.27
2023-07-27T17:37:13.622Z,54.38
2023-07-27T17:39:42.639Z,54.49
2023-07-27T17:42:10.623Z,54.39
2023-07-27T17:44:38.819Z,54.70
2023-07-27T17:47:07.310Z,54.80
2023-07-27T17:49:35.560Z,54.84
2023-07-27T17:52:05.375Z,54.77
2023-07-27T17:54:35.104Z,54.84
2023-07-27T17:57:03.044Z,55.12
2023-07-27T17:59:30.973Z,54.97
2023-07-27T18:01:59.074Z,55.07
2023-07-27T18:04:27.062Z,55.08
2023-07-27T18:06:54.992Z,55.27
2023-07-27T18:09:24.376Z,55.36
2023-07-27T18:11:52.315Z,55.32
2023-07-27T18:14:20.279Z,55.61
2023-07-27T18:16:48.256Z,55.55
2023-07-27T18:19:16.602Z,55.57
2023-07-27T18:21:45.214Z,55.58
2023-07-27T18:24:26.859Z,55.66
2023-07-27T18:26:57.968Z,55.89
2023-07-27T18:29:25.955Z,56.08
2023-07-27T18:31:53.982Z,56.23
2023-07-27T18:34:21.971Z,56.32
2023-07-27T18:36:50.573Z,56.48
2023-07-27T18:39:18.545Z,56.63
2023-07-27T18:41:46.638Z,56.61
2023-07-27T18:44:15.935Z,56.72
2023-07-27T18:46:43.929Z,56.86
2023-07-27T18:49:11.882Z,56.90
2023-07-27T18:51:39.835Z,56.89
2023-07-27T18:54:07.730Z,56.94
2023-07-27T18:56:35.879Z,56.99
2023-07-27T18:59:03.826Z,56.89
2023-07-27T19:01:33.379Z,57.00
2023-07-27T19:04:01.511Z,56.86
2023-07-27T19:06:29.534Z,56.83
2023-07-27T19:08:57.474Z,56.96
2023-07-27T19:11:25.513Z,56.92
2023-07-27T19:13:53.565Z,56.77
2023-07-27T19:16:25.992Z,56.69
2023-07-27T19:18:55.416Z,56.77
2023-07-27T19:21:23.356Z,56.69
2023-07-27T19:23:51.357Z,56.77
2023-07-27T19:26:20.437Z,56.84
2023-07-27T19:28:48.596Z,56.89
2023-07-27T19:31:20.737Z,57.22
2023-07-27T19:33:51.742Z,57.09
2023-07-27T19:36:21.227Z,57.09
2023-07-27T19:38:49.244Z,57.26
2023-07-27T19:41:17.895Z,57.31
2023-07-27T19:43:45.938Z,57.57
2023-07-27T19:46:13.960Z,57.41
2023-07-27T19:48:41.963Z,57.57
2023-07-27T19:51:10.017Z,57.53
2023-07-27T19:53:39.478Z,57.66
2023-07-27T19:56:07.919Z,57.67
2023-07-27T19:58:36.520Z,57.82
2023-07-27T20:01:04.633Z,57.90
2023-07-27T20:03:32.786Z,57.97
2023-07-27T20:06:00.762Z,58.14
2023-07-27T20:08:40.566Z,58.50
2023-07-27T20:11:16.217Z,58.41
2023-07-27T20:13:46.227Z,58.61
2023-07-27T20:16:14.836Z,58.51
2023-07-27T20:18:44.328Z,58.47
2023-07-27T20:21:13.096Z,58.65
2023-07-27T20:23:41.063Z,58.62
2023-07-27T20:26:09.103Z,58.80
2023-07-27T20:28:38.455Z,58.64
2023-07-27T20:31:07.713Z,58.81
2023-07-27T20:33:35.793Z,58.63
2023-07-27T20:36:03.805Z,59.04
2023-07-27T20:38:31.920Z,59.00
2023-07-27T20:41:04.165Z,58.99
2023-07-27T20:43:32.097Z,58.87
2023-07-27T20:46:02.315Z,59.01
2023-07-27T20:48:31.019Z,58.89
2023-07-27T20:50:59.816Z,59.12
2023-07-27T20:53:27.776Z,59.23
2023-07-27T20:55:57.022Z,59.44
2023-07-27T20:58:25.045Z,59.19
2023-07-27T21:01:01.521Z,59.56
2023-07-27T21:03:29.700Z,59.64
2023-07-27T21:05:57.661Z,59.79
2023-07-27T21:08:25.736Z,59.91
2023-07-27T21:10:54.119Z,60.00
2023-07-27T21:13:22.063Z,59.92
2023-07-27T21:16:01.673Z,60.05
2023-07-27T21:18:29.673Z,60.11
2023-07-27T21:20:57.638Z,60.21
2023-07-27T21:23:25.646Z,60.40
2023-07-27T21:25:58.685Z,60.75
2023-07-27T21:28:26.744Z,60.53
2023-07-27T21:30:57.563Z,60.74
2023-07-27T21:33:29.180Z,60.74
2023-07-27T21:35:57.780Z,61.02
2023-07-27T21:38:25.721Z,61.10
2023-07-27T21:40:54.197Z,60.99
2023-07-27T21:43:22.103Z,60.89
2023-07-27T21:45:50.184Z,61.49
2023-07-27T21:48:18.249Z,61.78
2023-07-27T21:50:49.061Z,61.93
2023-07-27T21:53:17.082Z,62.14
2023-07-27T21:55:45.056Z,62.38
2023-07-27T21:58:12.966Z,62.36
2023-07-27T22:00:40.930Z,62.41
2023-07-27T22:03:09.016Z,62.40
2023-07-27T22:05:37.020Z,62.38
2023-07-27T22:08:07.447Z,62.63
2023-07-27T22:10:35.409Z,62.53
2023-07-27T22:13:04.835Z,62.22
2023-07-27T22:15:32.819Z,62.62
2023-07-27T22:18:01.042Z,62.51
2023-07-27T22:20:29.040Z,62.61
2023-07-27T22:22:56.980Z,62.47
2023-07-27T22:25:26.399Z,62.60
2023-07-27T22:27:54.387Z,62.76
2023-07-27T22:30:22.503Z,62.46
2023-07-27T22:32:50.558Z,62.63
2023-07-27T22:35:18.498Z,62.63
2023-07-27T22:37:46.466Z,62.49
2023-07-27T22:40:14.448Z,62.63
2023-07-27T22:42:43.775Z,62.90
2023-07-27T22:45:12.089Z,62.84
2023-07-27T22:47:40.080Z,62.74
2023-07-27T22:50:08.645Z,62.79
2023-07-27T22:52:36.620Z,62.77
2023-07-27T22:55:04.632Z,62.62
2023-07-27T22:57:32.553Z,62.60
2023-07-27T23:00:01.834Z,62.58
2023-07-27T23:02:29.772Z,62.52
2023-07-27T23:04:57.740Z,62.82
2023-07-27T23:07:25.672Z,62.70
2023-07-27T23:09:53.621Z,62.62
2023-07-27T23:12:21.544Z,62.93
2023-07-27T23:14:49.475Z,62.92
2023-07-27T23:17:18.794Z,63.10
2023-07-27T23:19:46.952Z,63.11
2023-07-27T23:22:14.960Z,63.44
2023-07-27T23:24:43.454Z,63.43
2023-07-27T23:27:11.416Z,63.62
2023-07-27T23:29:39.473Z,63.48
2023-07-27T23:32:09.573Z,63.61
2023-07-27T23:34:38.975Z,63.82
2023-07-27T23:37:07.053Z,63.52
2023-07-27T23:39:35.420Z,63.78
2023-07-27T23:42:03.327Z,63.84
2023-07-27T23:44:31.253Z,63.79
2023-07-27T23:46:59.131Z,63.72
2023-07-27T23:49:27.088Z,63.81
2023-07-27T23:51:56.437Z,63.80
2023-07-27T23:54:24.357Z,63.80
2023-07-27T23:56:52.343Z,63.78
2023-07-27T23:59:20.290Z,63.75
